ELY5120 EPKK-LLBG
Flight info
| Callsign | ELY5120 |
|---|---|
| Flight time | N/A |
| Altitude | 35000 |
| Route | BABKO M866 NIDOK DCT PARAK DCT RAXAD DCT MAKED UL617 TSL UN130 MES UL609 ALKIS L609 ZUKKO |
| Aircraft | B738/M-SDE2E3FGHIJ1LORVWXY/LB1 |
Departure
| Time | N/A |
|---|---|
| Airport | Kraków John Paul II International Airport (EPKK) |
Arrival
| Time | 2026-05-01 11:09 |
|---|---|
| Airport | Ben Gurion International Airport (LLBG) |
| Time | Latitude | Longitude | Altitude | Speed | Heading |
|---|---|---|---|---|---|
| 2026-05-01 10:25 | 34.58644 | 30.93029 | 34991 ft | 504 kts | 130° |
| 2026-05-01 10:26 | 34.54429 | 30.99833 | 34988 ft | 505 kts | 129° |
| 2026-05-01 10:27 | 34.45988 | 31.13425 | 34992 ft | 505 kts | 129° |
| 2026-05-01 10:28 | 34.39604 | 31.23582 | 34994 ft | 505 kts | 129° |
| 2026-05-01 10:28 | 34.33206 | 31.33732 | 34968 ft | 505 kts | 129° |
| 2026-05-01 10:29 | 34.26810 | 31.43853 | 35002 ft | 505 kts | 129° |
| 2026-05-01 10:30 | 34.18267 | 31.57330 | 34991 ft | 505 kts | 129° |
| 2026-05-01 10:31 | 34.09712 | 31.70775 | 34986 ft | 505 kts | 130° |
| 2026-05-01 10:32 | 34.03296 | 31.80824 | 34988 ft | 504 kts | 130° |
| 2026-05-01 10:33 | 33.94736 | 31.94191 | 35000 ft | 503 kts | 130° |
| 2026-05-01 10:34 | 33.88336 | 32.04156 | 34992 ft | 503 kts | 130° |
| 2026-05-01 10:34 | 33.84025 | 32.10771 | 34992 ft | 502 kts | 131° |
| 2026-05-01 10:35 | 33.77428 | 32.20546 | 34992 ft | 502 kts | 131° |
| 2026-05-01 10:35 | 33.73027 | 32.27058 | 34998 ft | 502 kts | 131° |
| 2026-05-01 10:36 | 33.66455 | 32.36805 | 34839 ft | 497 kts | 131° |
| 2026-05-01 10:36 | 33.64292 | 32.40011 | 34495 ft | 491 kts | 131° |
| 2026-05-01 10:37 | 33.62150 | 32.43182 | 34125 ft | 487 kts | 131° |
| 2026-05-01 10:37 | 33.57911 | 32.49449 | 33297 ft | 480 kts | 131° |
| 2026-05-01 10:37 | 33.55813 | 32.52544 | 32894 ft | 477 kts | 131° |
| 2026-05-01 10:38 | 33.53731 | 32.55615 | 32487 ft | 473 kts | 131° |
| 2026-05-01 10:38 | 33.51661 | 32.58665 | 32111 ft | 470 kts | 131° |
| 2026-05-01 10:38 | 33.49606 | 32.61689 | 31736 ft | 466 kts | 131° |
| 2026-05-01 10:38 | 33.47563 | 32.64694 | 31358 ft | 463 kts | 131° |
| 2026-05-01 10:39 | 33.45590 | 32.67594 | 31013 ft | 460 kts | 131° |
| 2026-05-01 10:39 | 33.43583 | 32.70541 | 30631 ft | 457 kts | 131° |
| 2026-05-01 10:39 | 33.41773 | 32.73197 | 30301 ft | 455 kts | 131° |
| 2026-05-01 10:39 | 33.39802 | 32.76087 | 29917 ft | 453 kts | 131° |
| 2026-05-01 10:40 | 33.37817 | 32.78994 | 29494 ft | 450 kts | 131° |
| 2026-05-01 10:40 | 33.35823 | 32.81915 | 29079 ft | 446 kts | 131° |
| 2026-05-01 10:40 | 33.33892 | 32.84740 | 28710 ft | 442 kts | 131° |
| 2026-05-01 10:40 | 33.31953 | 32.87573 | 28313 ft | 439 kts | 132° |
| 2026-05-01 10:41 | 33.30028 | 32.90385 | 27948 ft | 435 kts | 132° |
| 2026-05-01 10:41 | 33.28122 | 32.93167 | 27568 ft | 431 kts | 132° |
| 2026-05-01 10:41 | 33.24347 | 32.98672 | 26831 ft | 425 kts | 132° |
| 2026-05-01 10:42 | 33.22482 | 33.01388 | 26470 ft | 422 kts | 132° |
| 2026-05-01 10:42 | 33.20628 | 33.04086 | 26110 ft | 419 kts | 132° |
| 2026-05-01 10:42 | 33.18800 | 33.06782 | 25802 ft | 414 kts | 131° |
| 2026-05-01 10:42 | 33.17044 | 33.09471 | 25563 ft | 409 kts | 130° |
| 2026-05-01 10:43 | 33.15324 | 33.12143 | 25285 ft | 404 kts | 130° |
| 2026-05-01 10:43 | 33.13621 | 33.14793 | 24957 ft | 401 kts | 130° |
| 2026-05-01 10:43 | 33.11925 | 33.17427 | 24625 ft | 399 kts | 131° |
| 2026-05-01 10:43 | 33.10235 | 33.20043 | 24284 ft | 397 kts | 131° |
| 2026-05-01 10:44 | 33.08551 | 33.22640 | 23917 ft | 396 kts | 131° |
| 2026-05-01 10:44 | 33.06867 | 33.25231 | 23567 ft | 395 kts | 131° |
| 2026-05-01 10:44 | 33.05186 | 33.27814 | 23124 ft | 394 kts | 131° |
| 2026-05-01 10:44 | 33.03513 | 33.30383 | 22753 ft | 391 kts | 131° |
| 2026-05-01 10:45 | 33.01850 | 33.32935 | 22386 ft | 388 kts | 131° |
| 2026-05-01 10:45 | 33.00201 | 33.35464 | 22019 ft | 385 kts | 131° |
| 2026-05-01 10:45 | 32.98561 | 33.37977 | 21679 ft | 383 kts | 131° |
| 2026-05-01 10:45 | 32.96933 | 33.40470 | 21330 ft | 380 kts | 131° |
| 2026-05-01 10:46 | 32.95313 | 33.42948 | 20985 ft | 377 kts | 131° |
| 2026-05-01 10:46 | 32.93710 | 33.45399 | 20643 ft | 375 kts | 131° |
| 2026-05-01 10:46 | 32.92112 | 33.47841 | 20303 ft | 372 kts | 131° |
| 2026-05-01 10:46 | 32.90524 | 33.50268 | 19964 ft | 370 kts | 131° |
| 2026-05-01 10:47 | 32.88945 | 33.52677 | 19630 ft | 368 kts | 131° |
| 2026-05-01 10:47 | 32.87379 | 33.55067 | 19306 ft | 366 kts | 131° |
| 2026-05-01 10:47 | 32.85817 | 33.57448 | 18983 ft | 363 kts | 131° |
| 2026-05-01 10:47 | 32.84266 | 33.59810 | 18656 ft | 361 kts | 131° |
| 2026-05-01 10:48 | 32.82722 | 33.62157 | 18328 ft | 359 kts | 131° |
| 2026-05-01 10:48 | 32.81117 | 33.64356 | 18025 ft | 354 kts | 136° |
| 2026-05-01 10:48 | 32.79425 | 33.66460 | 17683 ft | 351 kts | 137° |
| 2026-05-01 10:48 | 32.77719 | 33.68524 | 17343 ft | 348 kts | 138° |
| 2026-05-01 10:49 | 32.76028 | 33.70568 | 16996 ft | 346 kts | 138° |
| 2026-05-01 10:49 | 32.74349 | 33.72607 | 16657 ft | 344 kts | 138° |
| 2026-05-01 10:49 | 32.72680 | 33.74645 | 16329 ft | 342 kts | 137° |
| 2026-05-01 10:49 | 32.71027 | 33.76672 | 16002 ft | 341 kts | 137° |
| 2026-05-01 10:50 | 32.69386 | 33.78689 | 15679 ft | 339 kts | 137° |
| 2026-05-01 10:50 | 32.67753 | 33.80698 | 15354 ft | 338 kts | 137° |
| 2026-05-01 10:50 | 32.66125 | 33.82702 | 15026 ft | 336 kts | 137° |
| 2026-05-01 10:50 | 32.64501 | 33.84700 | 14704 ft | 335 kts | 137° |
| 2026-05-01 10:51 | 32.62884 | 33.86688 | 14375 ft | 334 kts | 137° |
| 2026-05-01 10:51 | 32.61275 | 33.88666 | 14065 ft | 333 kts | 137° |
| 2026-05-01 10:51 | 32.59670 | 33.90639 | 13732 ft | 332 kts | 136° |
| 2026-05-01 10:51 | 32.58067 | 33.92606 | 13386 ft | 331 kts | 136° |
| 2026-05-01 10:52 | 32.56473 | 33.94561 | 13051 ft | 329 kts | 136° |
| 2026-05-01 10:52 | 32.55425 | 33.95855 | 12877 ft | 326 kts | 136° |
| 2026-05-01 10:52 | 32.53873 | 33.97790 | 12642 ft | 322 kts | 136° |
| 2026-05-01 10:52 | 32.52346 | 33.99698 | 12418 ft | 317 kts | 136° |
| 2026-05-01 10:53 | 32.50831 | 34.01592 | 12187 ft | 316 kts | 136° |
| 2026-05-01 10:53 | 32.49318 | 34.03480 | 11970 ft | 316 kts | 136° |
| 2026-05-01 10:53 | 32.47802 | 34.05370 | 11748 ft | 316 kts | 136° |
| 2026-05-01 10:53 | 32.46283 | 34.07261 | 11527 ft | 316 kts | 136° |
| 2026-05-01 10:54 | 32.44768 | 34.09146 | 11302 ft | 317 kts | 136° |
| 2026-05-01 10:54 | 32.43291 | 34.11080 | 11064 ft | 318 kts | 126° |
| 2026-05-01 10:54 | 32.42426 | 34.13478 | 10818 ft | 318 kts | 104° |
| 2026-05-01 10:54 | 32.41960 | 34.16027 | 10584 ft | 315 kts | 102° |
| 2026-05-01 10:55 | 32.41533 | 34.18552 | 10333 ft | 311 kts | 102° |
| 2026-05-01 10:55 | 32.41110 | 34.21048 | 10083 ft | 308 kts | 102° |
| 2026-05-01 10:55 | 32.40681 | 34.23517 | 9844 ft | 305 kts | 102° |
| 2026-05-01 10:55 | 32.40249 | 34.25956 | 9583 ft | 301 kts | 102° |
| 2026-05-01 10:56 | 32.39817 | 34.28366 | 9338 ft | 297 kts | 102° |
| 2026-05-01 10:56 | 32.39388 | 34.30743 | 9101 ft | 294 kts | 102° |
| 2026-05-01 10:56 | 32.38966 | 34.33082 | 8931 ft | 287 kts | 103° |
| 2026-05-01 10:56 | 32.38551 | 34.35374 | 8818 ft | 284 kts | 103° |
| 2026-05-01 10:57 | 32.38138 | 34.37656 | 8714 ft | 283 kts | 103° |
| 2026-05-01 10:57 | 32.37723 | 34.39946 | 8617 ft | 286 kts | 103° |
| 2026-05-01 10:57 | 32.37302 | 34.42265 | 8507 ft | 290 kts | 103° |
| 2026-05-01 10:57 | 32.36878 | 34.44602 | 8386 ft | 290 kts | 103° |
| 2026-05-01 10:58 | 32.36456 | 34.46929 | 8265 ft | 289 kts | 103° |
| 2026-05-01 10:58 | 32.36033 | 34.49251 | 8152 ft | 288 kts | 103° |
| 2026-05-01 10:58 | 32.35612 | 34.51564 | 8036 ft | 287 kts | 103° |
| 2026-05-01 10:58 | 32.35059 | 34.53830 | 7839 ft | 289 kts | 112° |
| 2026-05-01 10:59 | 32.34264 | 34.56024 | 7639 ft | 290 kts | 115° |
| 2026-05-01 10:59 | 32.33432 | 34.58191 | 7414 ft | 287 kts | 115° |
| 2026-05-01 10:59 | 32.32617 | 34.60329 | 7205 ft | 283 kts | 115° |
| 2026-05-01 10:59 | 32.31824 | 34.62447 | 6990 ft | 280 kts | 115° |
| 2026-05-01 11:00 | 32.31060 | 34.64519 | 6789 ft | 278 kts | 114° |
| 2026-05-01 11:00 | 32.30287 | 34.66636 | 6590 ft | 277 kts | 114° |
| 2026-05-01 11:00 | 32.29526 | 34.68724 | 6386 ft | 276 kts | 114° |
| 2026-05-01 11:00 | 32.28769 | 34.70805 | 6170 ft | 275 kts | 114° |
| 2026-05-01 11:01 | 32.28016 | 34.72874 | 5963 ft | 274 kts | 114° |
| 2026-05-01 11:01 | 32.27273 | 34.74913 | 5745 ft | 273 kts | 114° |
| 2026-05-01 11:01 | 32.26523 | 34.76967 | 5559 ft | 272 kts | 114° |
| 2026-05-01 11:01 | 32.25775 | 34.79015 | 5344 ft | 271 kts | 114° |
| 2026-05-01 11:02 | 32.25074 | 34.81074 | 5150 ft | 270 kts | 109° |
| 2026-05-01 11:02 | 32.24530 | 34.83200 | 4961 ft | 270 kts | 107° |
| 2026-05-01 11:02 | 32.24003 | 34.85340 | 4761 ft | 271 kts | 107° |
| 2026-05-01 11:02 | 32.23469 | 34.87464 | 4543 ft | 269 kts | 108° |
| 2026-05-01 11:03 | 32.22935 | 34.89542 | 4452 ft | 258 kts | 108° |
| 2026-05-01 11:03 | 32.22426 | 34.91519 | 4339 ft | 245 kts | 108° |
| 2026-05-01 11:03 | 32.21943 | 34.93382 | 4227 ft | 230 kts | 108° |
| 2026-05-01 11:03 | 32.21483 | 34.95141 | 4133 ft | 218 kts | 107° |
| 2026-05-01 11:04 | 32.21048 | 34.96809 | 3999 ft | 207 kts | 108° |
| 2026-05-01 11:04 | 32.20524 | 34.98337 | 3716 ft | 202 kts | 129° |
| 2026-05-01 11:04 | 32.19378 | 34.99151 | 3465 ft | 185 kts | 167° |
| 2026-05-01 11:04 | 32.18112 | 34.99311 | 3239 ft | 181 kts | 190° |
| 2026-05-01 11:05 | 32.16842 | 34.99190 | 3106 ft | 187 kts | 182° |
| 2026-05-01 11:05 | 32.15563 | 34.98928 | 2926 ft | 187 kts | 207° |
| 2026-05-01 11:05 | 32.14435 | 34.98234 | 2832 ft | 180 kts | 211° |
| 2026-05-01 11:05 | 32.13356 | 34.97519 | 2658 ft | 176 kts | 211° |
| 2026-05-01 11:06 | 32.12277 | 34.96808 | 2449 ft | 182 kts | 210° |
| 2026-05-01 11:06 | 32.11169 | 34.96089 | 2181 ft | 180 kts | 211° |
| 2026-05-01 11:06 | 32.10106 | 34.95419 | 1975 ft | 167 kts | 211° |
| 2026-05-01 11:07 | 32.08089 | 34.94097 | 1553 ft | 164 kts | 214° |
| 2026-05-01 11:07 | 32.07089 | 34.93450 | 1305 ft | 162 kts | 212° |
| 2026-05-01 11:07 | 32.06118 | 34.92812 | 1091 ft | 159 kts | 212° |
| 2026-05-01 11:07 | 32.05148 | 34.92183 | 892 ft | 158 kts | 212° |
| 2026-05-01 11:08 | 32.04184 | 34.91566 | 685 ft | 156 kts | 214° |
| 2026-05-01 11:08 | 32.03222 | 34.90920 | 522 ft | 160 kts | 214° |
| 2026-05-01 11:08 | 32.01324 | 34.89714 | 122 ft | 147 kts | 216° |
| 2026-05-01 11:09 | 32.00577 | 34.89225 | 118 ft | 93 kts | 209° |
| 2026-05-01 11:09 | 32.00218 | 34.88961 | 119 ft | 33 kts | 226° |
| 2026-05-01 11:09 | 32.00115 | 34.88775 | 115 ft | 25 kts | 238° |
| 2026-05-01 11:10 | 32.00153 | 34.88527 | 118 ft | 16 kts | 302° |
| 2026-05-01 11:10 | 32.00221 | 34.88399 | 118 ft | 23 kts | 302° |
| 2026-05-01 11:10 | 32.00319 | 34.88212 | 115 ft | 29 kts | 301° |
| 2026-05-01 11:10 | 32.00418 | 34.88021 | 118 ft | 23 kts | 301° |
| 2026-05-01 11:11 | 32.00426 | 34.87904 | 118 ft | 15 kts | 219° |
| 2026-05-01 11:11 | 32.00338 | 34.87839 | 118 ft | 15 kts | 211° |
| 2026-05-01 11:11 | 32.00241 | 34.87770 | 117 ft | 17 kts | 210° |
| 2026-05-01 11:11 | 32.00189 | 34.87679 | 119 ft | 14 kts | 272° |
| 2026-05-01 11:12 | 32.00214 | 34.87576 | 115 ft | 13 kts | 301° |
| 2026-05-01 11:12 | 32.00269 | 34.87516 | 116 ft | 10 kts | 342° |
| 2026-05-01 11:12 | 32.00296 | 34.87506 | 118 ft | 1 kts | 343° |
| 2026-05-01 11:12 | 32.00299 | 34.87505 | 118 ft | 0 kts | 343° |